TimeEST,TemperatureF,Dew PointF,Humidity,Sea Level PressureIn,VisibilityMPH,Wind Direction,Wind SpeedMPH,Gust SpeedMPH,PrecipitationIn,Events,Conditions,WindDirDegrees,DateUTC
12:53 AM,36.0,34.0,93,29.83,7.0,ENE,10.4,-,0.03,Rain,Light Rain,70,2012-12-26 05:53:00
1:53 AM,37.0,35.1,93,29.75,10.0,East,9.2,19.6,0.03,Rain,Light Rain,80,2012-12-26 06:53:00
2:13 AM,37.4,35.6,93,29.71,10.0,East,11.5,17.3,0.00,Rain,Light Rain,80,2012-12-26 07:13:00
2:50 AM,37.4,35.6,93,29.65,10.0,East,12.7,19.6,0.01,Rain,Light Rain,80,2012-12-26 07:50:00
2:53 AM,37.9,36.0,93,29.69,10.0,ENE,11.5,19.6,0.01,,Overcast,70,2012-12-26 07:53:00
3:53 AM,39.9,37.9,93,29.57,10.0,East,15.0,23.0,0.02,,Overcast,80,2012-12-26 08:53:00
4:53 AM,43.0,39.9,89,29.51,10.0,East,6.9,-,0.00,,Overcast,80,2012-12-26 09:53:00
5:53 AM,44.1,41.0,89,29.47,10.0,ENE,5.8,-,0.00,,Partly Cloudy,60,2012-12-26 10:53:00
6:53 AM,45.0,42.1,90,29.43,10.0,East,6.9,-,0.00,,Overcast,80,2012-12-26 11:53:00
7:28 AM,44.6,42.8,93,29.43,3.0,Calm,Calm,-,0.07,Rain-Thunderstorm,Heavy Thunderstorms and Rain,0,2012-12-26 12:28:00
7:51 AM,44.6,42.8,93,29.42,10.0,East,4.6,-,0.10,,Overcast,90,2012-12-26 12:51:00
7:53 AM,45.0,43.0,93,29.43,10.0,ESE,4.6,-,0.10,,Overcast,110,2012-12-26 12:53:00
8:53 AM,45.0,43.0,93,29.43,10.0,East,4.6,-,0.01,,Overcast,100,2012-12-26 13:53:00
9:53 AM,48.9,45.0,86,29.46,10.0,West,10.4,-,N/A,,Overcast,260,2012-12-26 14:53:00
10:11 AM,46.4,42.8,87,29.46,4.0,West,10.4,-,0.05,Rain,Light Rain,270,2012-12-26 15:11:00
10:53 AM,46.0,44.1,93,29.48,7.0,WSW,3.5,-,0.06,Rain,Light Rain,240,2012-12-26 15:53:00
10:55 AM,46.4,44.6,93,29.47,8.0,SW,4.6,-,0.00,Rain,Light Rain,230,2012-12-26 15:55:00
11:33 AM,46.4,42.8,87,29.47,3.0,WSW,5.8,-,0.03,Rain,Rain,250,2012-12-26 16:33:00
11:39 AM,44.6,44.6,100,29.47,2.0,WSW,5.8,-,0.04,Rain,Rain,240,2012-12-26 16:39:00
11:47 AM,46.4,44.6,93,29.47,3.0,SW,8.1,-,0.05,Rain,Light Rain,230,2012-12-26 16:47:00
11:53 AM,46.0,43.0,89,29.47,5.0,SW,8.1,-,0.06,Rain,Light Rain,230,2012-12-26 16:53:00
12:16 PM,44.6,41.0,87,29.47,10.0,SW,12.7,19.6,0.00,Rain,Light Rain,230,2012-12-26 17:16:00
12:51 PM,44.6,39.2,81,29.46,10.0,WSW,10.4,-,0.00,Rain,Light Rain,240,2012-12-26 17:51:00
12:53 PM,44.1,39.0,82,29.47,10.0,SW,9.2,-,0.00,Rain,Light Rain,230,2012-12-26 17:53:00
1:53 PM,44.1,37.0,76,29.49,10.0,SW,15.0,27.6,0.01,Rain,Light Rain,230,2012-12-26 18:53:00
2:53 PM,39.0,35.1,86,29.54,7.0,WSW,20.7,29.9,0.00,Rain,Light Rain,240,2012-12-26 19:53:00
3:23 PM,37.4,33.8,87,29.54,10.0,WSW,19.6,32.2,0.00,,Overcast,240,2012-12-26 20:23:00
3:36 PM,37.4,33.8,87,29.56,10.0,WSW,15.0,23.0,0.00,Rain,Light Rain,240,2012-12-26 20:36:00
3:53 PM,36.0,33.1,89,29.59,8.0,WSW,15.0,25.3,0.01,Rain,Light Rain,240,2012-12-26 20:53:00
4:53 PM,34.0,30.9,89,29.64,10.0,West,13.8,25.3,0.00,,Overcast,260,2012-12-26 21:53:00
5:53 PM,33.1,28.9,85,29.69,10.0,West,15.0,24.2,0.00,,Overcast,260,2012-12-26 22:53:00
6:02 PM,32.0,28.4,87,29.68,7.0,West,17.3,24.2,0.00,,Overcast,270,2012-12-26 23:02:00
6:53 PM,32.0,28.0,85,29.75,10.0,West,24.2,31.1,0.00,,Overcast,270,2012-12-26 23:53:00
7:53 PM,30.9,28.0,89,29.80,4.0,West,12.7,-,0.00,Snow,Light Snow,280,2012-12-27 00:53:00
8:09 PM,30.2,28.4,93,29.80,3.0,West,12.7,-,0.00,Snow,Light Snow,270,2012-12-27 01:09:00
8:53 PM,30.9,28.0,89,29.84,7.0,WNW,15.0,23.0,0.00,,Overcast,290,2012-12-27 01:53:00
9:53 PM,30.9,27.0,85,29.88,10.0,WNW,16.1,25.3,0.00,,Overcast,290,2012-12-27 02:53:00
10:53 PM,30.9,27.0,85,29.93,10.0,WNW,17.3,21.9,0.00,,Overcast,290,2012-12-27 03:53:00
11:53 PM,30.0,27.0,88,29.95,10.0,WNW,9.2,-,N/A,,Overcast,290,2012-12-27 04:53:00